createdAt,value
2023-07-25T00:01:46.175Z,3.42
2023-07-25T00:04:13.902Z,3.23
2023-07-25T00:06:41.653Z,3.47
2023-07-25T00:09:09.447Z,3.53
2023-07-25T00:11:37.129Z,3.60
2023-07-25T00:14:06.207Z,3.95
2023-07-25T00:16:33.931Z,3.58
2023-07-25T00:19:01.684Z,4.03
2023-07-25T00:21:29.633Z,4.20
2023-07-25T00:23:57.659Z,4.15
2023-07-25T00:26:25.336Z,4.20
2023-07-25T00:28:53.124Z,4.17
2023-07-25T00:31:22.213Z,4.13
2023-07-25T00:33:49.918Z,4.43
2023-07-25T00:36:17.574Z,4.88
2023-07-25T00:38:45.223Z,5.55
2023-07-25T00:41:12.938Z,4.85
2023-07-25T00:43:40.627Z,4.67
2023-07-25T00:46:08.439Z,4.77
2023-07-25T00:48:37.695Z,5.10
2023-07-25T00:51:06.452Z,4.60
2023-07-25T00:53:34.211Z,5.03
2023-07-25T00:56:02.570Z,4.50
2023-07-25T00:58:30.513Z,5.13
2023-07-25T01:01:03.739Z,4.57
2023-07-25T01:03:32.210Z,4.47
2023-07-25T01:06:04.046Z,5.20
2023-07-25T01:08:31.855Z,4.30
2023-07-25T01:10:59.530Z,4.13
2023-07-25T01:13:27.248Z,4.17
2023-07-25T01:15:55.604Z,4.33
2023-07-25T01:18:23.442Z,4.30
2023-07-25T01:20:51.550Z,4.17
2023-07-25T01:23:21.765Z,4.93
2023-07-25T01:25:50.782Z,3.70
2023-07-25T01:28:18.504Z,3.73
2023-07-25T01:30:46.323Z,3.63
2023-07-25T01:33:14.015Z,4.13
2023-07-25T01:35:41.776Z,4.70
2023-07-25T01:38:09.585Z,3.83
2023-07-25T01:40:40.515Z,4.20
2023-07-25T01:43:10.022Z,4.27
2023-07-25T01:45:38.025Z,4.90
2023-07-25T01:48:06.060Z,5.37
2023-07-25T01:50:33.743Z,4.70
2023-07-25T01:53:01.428Z,4.00
2023-07-25T01:55:29.162Z,4.40
2023-07-25T01:57:56.924Z,4.50
2023-07-25T02:00:25.940Z,4.77
2023-07-25T02:02:53.676Z,4.57
2023-07-25T02:05:21.343Z,4.50
2023-07-25T02:07:49.034Z,5.40
2023-07-25T02:10:16.972Z,4.00
2023-07-25T02:12:44.636Z,5.00
2023-07-25T02:15:12.377Z,5.27
2023-07-25T02:17:41.457Z,4.97
2023-07-25T02:20:09.971Z,4.50
2023-07-25T02:22:37.624Z,4.50
2023-07-25T02:25:06.283Z,5.03
2023-07-25T02:27:34.273Z,4.77
2023-07-25T02:30:02.001Z,4.50
2023-07-25T02:32:29.668Z,4.33
2023-07-25T02:34:58.695Z,4.10
2023-07-25T02:37:26.463Z,4.50
2023-07-25T02:39:54.142Z,4.77
2023-07-25T02:42:21.858Z,4.73
2023-07-25T02:44:49.540Z,4.77
2023-07-25T02:47:17.206Z,5.13
2023-07-25T02:49:44.928Z,5.10
2023-07-25T02:52:13.927Z,5.20
2023-07-25T02:54:41.735Z,4.83
2023-07-25T02:57:09.491Z,4.60
2023-07-25T02:59:37.204Z,4.43
2023-07-25T03:02:05.298Z,4.50
2023-07-25T03:04:33.019Z,5.13
2023-07-25T03:07:00.739Z,5.03
2023-07-25T03:09:29.963Z,5.77
2023-07-25T03:11:57.689Z,5.20
2023-07-25T03:14:25.362Z,5.43
2023-07-25T03:16:53.154Z,5.07
2023-07-25T03:19:20.890Z,5.93
2023-07-25T03:21:48.561Z,5.37
2023-07-25T03:24:16.255Z,5.60
2023-07-25T03:26:45.375Z,5.67
2023-07-25T03:29:13.087Z,5.27
2023-07-25T03:31:40.781Z,5.13
2023-07-25T03:34:08.896Z,5.57
2023-07-25T03:36:36.595Z,6.07
2023-07-25T03:39:04.263Z,5.17
2023-07-25T03:41:32.247Z,5.30
2023-07-25T03:44:01.567Z,4.80
2023-07-25T03:46:29.372Z,5.30
2023-07-25T03:48:59.206Z,5.37
2023-07-25T03:51:27.168Z,4.80
2023-07-25T03:53:55.678Z,5.60
2023-07-25T03:56:23.453Z,5.13
2023-07-25T03:58:51.213Z,5.63
2023-07-25T04:01:20.203Z,5.70
2023-07-25T04:03:48.036Z,5.60
2023-07-25T04:06:16.059Z,5.60
2023-07-25T04:08:43.708Z,6.17
2023-07-25T04:11:11.429Z,5.53
2023-07-25T04:13:39.149Z,5.20
2023-07-25T04:16:07.516Z,6.17
2023-07-25T04:18:36.605Z,5.60
2023-07-25T04:21:04.272Z,4.73
2023-07-25T04:23:32.014Z,5.60
2023-07-25T04:25:59.829Z,5.30
2023-07-25T04:28:29.276Z,5.23
2023-07-25T04:30:59.187Z,5.70
2023-07-25T04:33:26.958Z,6.40
2023-07-25T04:35:55.964Z,6.53
2023-07-25T04:38:23.766Z,5.63
2023-07-25T04:40:51.465Z,6.40
2023-07-25T04:43:19.132Z,5.27
2023-07-25T04:45:53.063Z,5.20
2023-07-25T04:48:22.566Z,5.63
2023-07-25T04:50:50.212Z,5.63
2023-07-25T04:53:19.352Z,5.37
2023-07-25T04:55:47.043Z,5.70
2023-07-25T04:58:14.863Z,6.40
2023-07-25T05:00:42.542Z,6.33
2023-07-25T05:03:10.269Z,5.00
2023-07-25T05:05:38.143Z,5.57
2023-07-25T05:08:05.900Z,5.57
2023-07-25T05:10:36.371Z,5.70
2023-07-25T05:13:04.108Z,5.27
2023-07-25T05:15:31.859Z,5.23
2023-07-25T05:17:59.558Z,5.50
2023-07-25T05:20:27.358Z,4.85
2023-07-25T05:22:55.044Z,5.10
2023-07-25T05:25:22.714Z,4.28
2023-07-25T05:27:51.802Z,4.57
2023-07-25T05:30:19.620Z,4.32
2023-07-25T05:32:47.661Z,4.30
2023-07-25T05:35:15.357Z,4.13
2023-07-25T05:37:43.011Z,3.88
2023-07-25T05:40:10.890Z,3.65
2023-07-25T05:42:38.584Z,3.60
2023-07-25T05:45:08.753Z,3.60
2023-07-25T05:47:36.410Z,3.70
2023-07-25T05:50:05.149Z,3.90
2023-07-25T05:52:32.925Z,3.95
2023-07-25T05:55:00.727Z,4.68
2023-07-25T05:57:28.461Z,3.53
2023-07-25T05:59:56.210Z,4.00
2023-07-25T06:02:25.262Z,3.85
2023-07-25T06:04:52.918Z,3.35
2023-07-25T06:07:23.428Z,3.25
2023-07-25T06:09:51.470Z,3.47
2023-07-25T06:12:19.433Z,3.28
2023-07-25T06:14:47.453Z,3.78
2023-07-25T06:17:15.171Z,3.80
2023-07-25T06:19:45.790Z,3.20
2023-07-25T06:22:15.515Z,3.10
2023-07-25T06:24:43.751Z,3.83
2023-07-25T06:27:11.523Z,2.90
2023-07-25T06:29:39.170Z,2.88
2023-07-25T06:32:07.931Z,2.40
2023-07-25T06:34:35.681Z,3.05
2023-07-25T06:37:04.838Z,3.75
2023-07-25T06:39:32.536Z,3.25
2023-07-25T06:42:00.268Z,2.83
2023-07-25T06:44:27.956Z,3.22
2023-07-25T06:46:55.728Z,2.60
2023-07-25T06:49:23.534Z,3.38
2023-07-25T06:51:51.166Z,2.70
2023-07-25T06:54:20.329Z,2.70
2023-07-25T06:56:47.968Z,2.70
2023-07-25T06:59:15.670Z,2.70
2023-07-25T07:01:43.336Z,2.78
2023-07-25T07:04:11.456Z,2.50
2023-07-25T07:06:39.486Z,2.97
2023-07-25T07:09:07.205Z,2.70
2023-07-25T07:11:36.304Z,2.95
2023-07-25T07:14:04.063Z,2.70
2023-07-25T07:16:31.998Z,3.03
2023-07-25T07:18:59.763Z,2.80
2023-07-25T07:21:27.465Z,3.03
2023-07-25T07:23:55.221Z,3.05
2023-07-25T07:26:22.924Z,3.38
2023-07-25T07:28:52.251Z,2.90
2023-07-25T07:31:24.458Z,3.30
2023-07-25T07:33:52.214Z,3.13
2023-07-25T07:36:19.909Z,3.17
2023-07-25T07:38:50.734Z,3.40
2023-07-25T07:41:18.442Z,3.08
2023-07-25T07:43:46.205Z,3.35
2023-07-25T07:46:15.256Z,3.00
2023-07-25T07:48:44.422Z,3.47
2023-07-25T07:51:12.279Z,3.10
2023-07-25T07:53:40.467Z,3.17
2023-07-25T07:56:09.314Z,3.10
2023-07-25T07:58:37.086Z,3.38
2023-07-25T08:01:05.083Z,3.20
2023-07-25T08:03:34.151Z,3.30
2023-07-25T08:06:01.972Z,3.20
2023-07-25T08:08:29.633Z,3.38
2023-07-25T08:10:57.295Z,3.38
2023-07-25T08:13:24.998Z,2.88
2023-07-25T08:15:52.708Z,2.75
2023-07-25T08:18:21.315Z,3.47
2023-07-25T08:20:56.518Z,2.65
2023-07-25T08:23:24.288Z,2.65
2023-07-25T08:25:52.262Z,2.67
2023-07-25T08:28:20.026Z,2.65
2023-07-25T08:30:48.244Z,2.50
2023-07-25T08:33:20.164Z,2.47
2023-07-25T08:35:51.777Z,2.75
2023-07-25T08:38:19.558Z,2.90
2023-07-25T08:40:48.712Z,2.58
2023-07-25T08:43:19.860Z,2.95
2023-07-25T08:45:50.168Z,2.30
2023-07-25T08:48:21.511Z,2.40
2023-07-25T08:50:53.820Z,3.05
2023-07-25T08:53:25.232Z,2.72
2023-07-25T08:55:53.646Z,2.42
2023-07-25T08:58:21.817Z,2.65
2023-07-25T09:00:50.847Z,2.75
2023-07-25T09:03:19.041Z,2.90
2023-07-25T09:05:47.810Z,2.70
2023-07-25T09:08:16.815Z,2.72
2023-07-25T09:10:46.306Z,2.95
2023-07-25T09:13:14.107Z,2.63
2023-07-25T09:15:41.806Z,2.33
2023-07-25T09:18:09.513Z,2.80
2023-07-25T09:20:38.502Z,2.63
2023-07-25T09:23:06.213Z,2.45
2023-07-25T09:25:35.346Z,2.58
2023-07-25T09:28:03.168Z,2.70
2023-07-25T09:30:31.000Z,2.55
2023-07-25T09:32:58.705Z,2.40
2023-07-25T09:35:27.296Z,2.60
2023-07-25T09:37:56.557Z,2.53
2023-07-25T09:40:24.514Z,2.60
2023-07-25T09:42:53.716Z,2.58
2023-07-25T09:45:21.840Z,2.10
2023-07-25T09:47:54.556Z,2.17
2023-07-25T09:50:27.917Z,2.17
2023-07-25T09:52:55.784Z,2.05
2023-07-25T09:55:23.705Z,2.17
2023-07-25T09:57:53.617Z,2.30
2023-07-25T10:00:21.465Z,2.50
2023-07-25T10:02:51.222Z,2.33
2023-07-25T10:05:19.556Z,2.13
2023-07-25T10:07:50.396Z,2.30
2023-07-25T10:10:19.682Z,1.90
2023-07-25T10:12:47.681Z,2.20
2023-07-25T10:15:17.142Z,2.10
2023-07-25T10:17:45.315Z,2.38
2023-07-25T10:20:21.876Z,2.38
2023-07-25T10:22:49.985Z,2.55
2023-07-25T10:25:22.512Z,2.60
2023-07-25T10:27:55.373Z,2.55
2023-07-25T10:30:25.637Z,2.88
2023-07-25T10:32:55.290Z,2.65
2023-07-25T10:35:43.386Z,2.33
2023-07-25T10:38:12.675Z,2.50
2023-07-25T10:40:56.643Z,2.10
2023-07-25T10:43:29.469Z,1.92
2023-07-25T10:46:03.327Z,2.30
2023-07-25T10:48:45.818Z,2.20
2023-07-25T10:51:16.512Z,2.58
2023-07-25T10:54:08.623Z,2.33
2023-07-25T10:56:36.686Z,2.20
2023-07-25T10:59:09.880Z,2.47
2023-07-25T11:01:48.030Z,2.80
2023-07-25T11:04:27.836Z,2.10
2023-07-25T11:06:57.516Z,2.38
2023-07-25T11:09:26.617Z,2.13
2023-07-25T11:11:56.146Z,2.40
2023-07-25T11:14:24.458Z,2.50
2023-07-25T11:16:58.258Z,2.15
2023-07-25T11:19:30.025Z,2.20
2023-07-25T11:21:58.538Z,2.60
2023-07-25T11:24:26.865Z,2.30
2023-07-25T11:26:54.960Z,2.10
2023-07-25T11:29:23.723Z,2.30
2023-07-25T11:31:52.974Z,2.47
2023-07-25T11:34:22.867Z,2.33
2023-07-25T11:36:50.720Z,2.45
2023-07-25T11:39:20.168Z,2.67
2023-07-25T11:41:48.190Z,2.53
2023-07-25T11:44:19.748Z,2.40
2023-07-25T11:46:51.210Z,2.75
2023-07-25T11:49:40.436Z,2.58
2023-07-25T11:52:11.584Z,2.80
2023-07-25T11:54:42.054Z,2.83
2023-07-25T11:57:12.044Z,2.78
2023-07-25T11:59:43.518Z,2.42
2023-07-25T12:02:13.569Z,2.70
2023-07-25T12:04:46.587Z,2.75
2023-07-25T12:07:15.405Z,3.00
2023-07-25T12:09:51.417Z,2.65
2023-07-25T12:12:19.783Z,2.53
2023-07-25T12:14:58.609Z,3.10
2023-07-25T12:17:44.199Z,2.92
2023-07-25T12:20:18.135Z,2.42
2023-07-25T12:22:46.207Z,2.03
2023-07-25T12:25:18.665Z,2.20
2023-07-25T12:27:50.486Z,2.42
2023-07-25T12:30:21.559Z,2.08
2023-07-25T12:32:49.376Z,2.10
2023-07-25T12:35:18.640Z,2.38
2023-07-25T12:37:46.301Z,2.10
2023-07-25T12:40:14.154Z,2.00
2023-07-25T12:42:42.027Z,1.85
2023-07-25T12:45:11.550Z,2.42
2023-07-25T12:47:39.994Z,2.13
2023-07-25T12:50:10.296Z,2.05
2023-07-25T12:52:40.752Z,2.40
2023-07-25T12:55:09.513Z,2.03
2023-07-25T12:57:38.715Z,2.40
2023-07-25T13:00:08.675Z,2.20
2023-07-25T13:02:38.043Z,2.33
2023-07-25T13:05:07.512Z,2.30
2023-07-25T13:07:36.292Z,2.17
2023-07-25T13:10:07.634Z,2.05
2023-07-25T13:12:35.961Z,1.92
2023-07-25T13:15:06.687Z,1.50
2023-07-25T13:17:36.244Z,1.80
2023-07-25T13:20:08.291Z,2.00
2023-07-25T13:22:38.672Z,2.55
2023-07-25T13:25:08.628Z,2.25
2023-07-25T13:27:36.480Z,2.38
2023-07-25T13:30:05.408Z,2.22
2023-07-25T13:32:33.738Z,1.85
2023-07-25T13:35:01.820Z,1.90
2023-07-25T13:37:29.728Z,2.30
2023-07-25T13:39:57.688Z,2.20
2023-07-25T13:42:30.098Z,2.00
2023-07-25T13:44:58.013Z,2.20
2023-07-25T13:47:26.539Z,2.10
2023-07-25T13:49:56.658Z,2.15
2023-07-25T13:52:24.625Z,2.33
2023-07-25T13:54:52.601Z,2.15
2023-07-25T13:57:25.614Z,2.20
2023-07-25T14:00:00.420Z,2.03
2023-07-25T14:02:28.879Z,2.00
2023-07-25T14:04:56.751Z,1.98
2023-07-25T14:07:24.623Z,2.08
2023-07-25T14:09:52.624Z,2.20
2023-07-25T14:12:20.505Z,2.65
2023-07-25T14:14:48.666Z,2.35
2023-07-25T14:17:19.486Z,2.20
2023-07-25T14:19:47.589Z,2.15
2023-07-25T14:22:15.594Z,2.40
2023-07-25T14:24:43.826Z,2.20
2023-07-25T14:27:12.022Z,2.15
2023-07-25T14:29:39.963Z,2.35
2023-07-25T14:32:08.958Z,2.30
2023-07-25T14:34:38.382Z,2.38
2023-07-25T14:37:06.998Z,2.30
2023-07-25T14:39:35.279Z,2.00
2023-07-25T14:42:03.210Z,2.22
2023-07-25T14:44:31.364Z,2.25
2023-07-25T14:46:59.893Z,2.40
2023-07-25T14:49:28.014Z,2.22
2023-07-25T14:51:57.500Z,2.40
2023-07-25T14:54:38.789Z,2.35
2023-07-25T14:57:07.289Z,2.42
2023-07-25T14:59:35.344Z,2.30
2023-07-25T15:02:03.212Z,2.13
2023-07-25T15:04:31.074Z,1.90
2023-07-25T15:07:00.072Z,2.08
2023-07-25T15:09:27.768Z,2.13
2023-07-25T15:11:55.521Z,2.35
2023-07-25T15:14:25.026Z,2.22
2023-07-25T15:16:56.701Z,2.22
2023-07-25T15:19:26.519Z,2.28
2023-07-25T15:21:55.826Z,2.40
2023-07-25T15:24:24.889Z,1.92
2023-07-25T15:26:53.360Z,1.83
2023-07-25T15:29:21.106Z,1.90
2023-07-25T15:31:48.772Z,1.92
2023-07-25T15:34:16.485Z,3.00
2023-07-25T15:36:45.558Z,2.50
2023-07-25T15:39:14.378Z,2.03
2023-07-25T15:41:43.383Z,1.95
2023-07-25T15:44:11.678Z,2.10
2023-07-25T15:46:39.340Z,2.30
2023-07-25T15:49:07.036Z,2.20
2023-07-25T15:51:34.955Z,2.10
2023-07-25T15:54:03.023Z,2.00
2023-07-25T15:56:30.675Z,2.13
2023-07-25T15:58:59.728Z,2.30
2023-07-25T16:01:27.445Z,2.17
2023-07-25T16:03:55.191Z,2.10
2023-07-25T16:06:22.846Z,1.90
2023-07-25T16:08:50.525Z,1.80
2023-07-25T16:11:18.240Z,1.88
2023-07-25T16:13:46.377Z,1.98
2023-07-25T16:16:15.578Z,1.88
2023-07-25T16:18:43.332Z,1.70
2023-07-25T16:21:11.820Z,1.98
2023-07-25T16:23:39.596Z,1.88
2023-07-25T16:26:07.938Z,1.60
2023-07-25T16:28:37.260Z,1.80
2023-07-25T16:31:30.189Z,1.80
2023-07-25T16:33:54.475Z,1.90
2023-07-25T16:36:22.142Z,1.80
2023-07-25T16:38:49.825Z,1.98
2023-07-25T16:41:18.702Z,1.70
2023-07-25T16:43:46.556Z,1.83
2023-07-25T16:46:14.260Z,1.70
2023-07-25T16:48:41.970Z,1.80
2023-07-25T16:51:11.472Z,1.65
2023-07-25T16:53:39.259Z,1.50
2023-07-25T16:56:07.099Z,1.95
2023-07-25T16:58:35.803Z,2.42
2023-07-25T17:01:04.538Z,1.70
2023-07-25T17:03:32.557Z,1.80
2023-07-25T17:06:02.680Z,1.80
2023-07-25T17:08:33.484Z,1.80
2023-07-25T17:11:05.395Z,1.85
2023-07-25T17:13:33.273Z,1.83
2023-07-25T17:16:01.219Z,2.20
2023-07-25T17:18:30.308Z,1.90
2023-07-25T17:20:58.306Z,2.00
2023-07-25T17:23:26.228Z,1.90
2023-07-25T17:25:55.262Z,1.92
2023-07-25T17:28:22.951Z,2.00
2023-07-25T17:30:51.145Z,1.80
2023-07-25T17:33:18.868Z,2.10
2023-07-25T17:35:46.573Z,2.20
2023-07-25T17:38:14.833Z,1.88
2023-07-25T17:40:43.063Z,2.10
2023-07-25T17:43:12.172Z,1.95
2023-07-25T17:45:39.870Z,2.00
2023-07-25T17:48:09.747Z,2.17
2023-07-25T17:50:37.490Z,2.10
2023-07-25T17:53:05.771Z,2.35
2023-07-25T17:55:33.592Z,2.83
2023-07-25T17:58:01.270Z,2.20
2023-07-25T18:00:30.380Z,2.20
2023-07-25T18:02:58.207Z,2.65
2023-07-25T18:05:25.945Z,2.00
2023-07-25T18:07:53.584Z,2.40
2023-07-25T18:10:21.325Z,2.35
2023-07-25T18:12:49.017Z,2.00
2023-07-25T18:15:17.027Z,2.28
2023-07-25T18:17:46.319Z,2.03
2023-07-25T18:20:14.128Z,2.25
2023-07-25T18:22:41.849Z,2.42
2023-07-25T18:25:10.610Z,2.40
2023-07-25T18:27:39.781Z,2.08
2023-07-25T18:30:09.611Z,2.38
2023-07-25T18:32:37.388Z,2.40
2023-07-25T18:35:07.006Z,1.90
2023-07-25T18:37:34.778Z,2.45
2023-07-25T18:40:02.465Z,2.05
2023-07-25T18:42:30.161Z,2.50
2023-07-25T18:44:57.829Z,2.10
2023-07-25T18:47:34.493Z,2.25
2023-07-25T18:50:03.256Z,2.40
2023-07-25T18:52:32.274Z,2.35
2023-07-25T18:54:59.955Z,2.92
2023-07-25T18:57:27.726Z,2.20
2023-07-25T18:59:56.934Z,2.33
2023-07-25T19:02:24.885Z,2.60
2023-07-25T19:04:52.674Z,2.55
2023-07-25T19:07:20.398Z,2.47
2023-07-25T19:09:49.459Z,2.30
2023-07-25T19:12:17.354Z,2.45
2023-07-25T19:14:45.030Z,2.20
2023-07-25T19:17:12.763Z,2.53
2023-07-25T19:19:41.244Z,2.22
2023-07-25T19:22:09.731Z,2.20
2023-07-25T19:24:37.533Z,2.08
2023-07-25T19:27:07.153Z,2.95
2023-07-25T19:29:34.829Z,2.58
2023-07-25T19:32:03.277Z,2.47
2023-07-25T19:34:31.035Z,2.47
2023-07-25T19:36:58.717Z,2.30
2023-07-25T19:39:26.350Z,2.80
2023-07-25T19:41:54.348Z,2.20
2023-07-25T19:44:23.461Z,2.60
2023-07-25T19:46:53.108Z,2.50
2023-07-25T19:49:21.195Z,2.90
2023-07-25T19:51:49.280Z,2.78
2023-07-25T19:54:16.960Z,2.47
2023-07-25T19:56:44.741Z,2.40
2023-07-25T19:59:12.675Z,2.45
2023-07-25T20:01:41.741Z,2.38
2023-07-25T20:04:09.507Z,2.47
2023-07-25T20:06:38.145Z,2.30
2023-07-25T20:09:05.858Z,2.20
2023-07-25T20:11:33.598Z,2.67
2023-07-25T20:14:03.041Z,2.20
2023-07-25T20:16:31.408Z,2.58
2023-07-25T20:19:00.715Z,2.60
2023-07-25T20:21:28.428Z,2.15
2023-07-25T20:23:56.288Z,2.28
2023-07-25T20:26:24.079Z,2.50
2023-07-25T20:28:51.862Z,2.47
2023-07-25T20:31:20.140Z,2.22
2023-07-25T20:33:47.821Z,2.78
2023-07-25T20:36:16.901Z,2.28
2023-07-25T20:38:47.546Z,2.42
2023-07-25T20:41:15.281Z,2.72
2023-07-25T20:43:43.494Z,2.78
2023-07-25T20:46:11.213Z,2.75
2023-07-25T20:48:38.892Z,2.63
2023-07-25T20:51:06.614Z,2.85
2023-07-25T20:53:40.661Z,2.50
2023-07-25T20:56:09.070Z,2.50
2023-07-25T20:58:36.873Z,2.30
2023-07-25T21:01:04.605Z,2.92
2023-07-25T21:03:32.536Z,3.10
2023-07-25T21:06:01.325Z,3.00
2023-07-25T21:08:28.990Z,2.55
2023-07-25T21:10:58.523Z,2.75
2023-07-25T21:13:26.215Z,2.90
2023-07-25T21:15:54.199Z,2.55
2023-07-25T21:18:22.044Z,2.38
2023-07-25T21:20:49.953Z,2.63
2023-07-25T21:23:18.072Z,2.90
2023-07-25T21:25:45.761Z,2.50
2023-07-25T21:28:14.810Z,2.80
2023-07-25T21:30:42.770Z,2.57
2023-07-25T21:33:11.120Z,2.88
2023-07-25T21:35:38.893Z,2.83
2023-07-25T21:38:06.540Z,3.00
2023-07-25T21:40:34.254Z,2.73
2023-07-25T21:43:01.925Z,3.03
2023-07-25T21:45:30.936Z,2.80
2023-07-25T21:47:58.740Z,2.87
2023-07-25T21:50:26.469Z,2.60
2023-07-25T21:52:54.173Z,2.60
2023-07-25T21:55:21.909Z,3.00
2023-07-25T21:57:49.580Z,2.90
2023-07-25T22:00:17.580Z,3.07
2023-07-25T22:02:46.675Z,3.03
2023-07-25T22:05:14.444Z,2.80
2023-07-25T22:07:42.149Z,3.03
2023-07-25T22:10:10.127Z,2.67
2023-07-25T22:12:37.802Z,2.97
2023-07-25T22:15:07.791Z,2.97
2023-07-25T22:17:35.521Z,3.47
2023-07-25T22:20:04.975Z,2.50
2023-07-25T22:22:32.889Z,2.83
2023-07-25T22:25:01.191Z,2.90
2023-07-25T22:27:29.011Z,2.90
2023-07-25T22:29:56.673Z,2.90
2023-07-25T22:32:25.049Z,2.30
2023-07-25T22:34:52.843Z,2.97
2023-07-25T22:37:22.849Z,3.10
2023-07-25T22:39:50.536Z,2.87
2023-07-25T22:42:18.214Z,3.00
2023-07-25T22:44:45.921Z,3.55
2023-07-25T22:47:13.653Z,3.20
2023-07-25T22:49:41.315Z,2.90
2023-07-25T22:52:09.134Z,3.15
2023-07-25T22:54:38.259Z,2.87
2023-07-25T22:57:06.355Z,2.80
2023-07-25T22:59:34.199Z,2.97
2023-07-25T23:02:01.852Z,2.47
2023-07-25T23:04:29.621Z,2.50
2023-07-25T23:06:57.771Z,3.28
2023-07-25T23:09:25.485Z,3.35
2023-07-25T23:11:54.571Z,3.00
2023-07-25T23:14:22.675Z,3.08
2023-07-25T23:16:50.483Z,2.53
2023-07-25T23:19:18.201Z,2.60
2023-07-25T23:21:45.919Z,3.05
2023-07-25T23:24:13.673Z,3.00
2023-07-25T23:26:43.044Z,2.70
2023-07-25T23:29:12.282Z,2.92
2023-07-25T23:31:40.092Z,3.00
2023-07-25T23:34:07.917Z,3.00
2023-07-25T23:36:35.669Z,3.03
2023-07-25T23:39:03.330Z,2.87
2023-07-25T23:41:31.183Z,2.43
2023-07-25T23:43:58.939Z,2.87
2023-07-25T23:46:28.082Z,3.20
2023-07-25T23:48:56.218Z,3.07
2023-07-25T23:51:24.289Z,3.00
2023-07-25T23:53:51.981Z,2.97
2023-07-25T23:56:19.656Z,2.50
2023-07-25T23:58:47.354Z,2.90
